sensor_id;sensor_type;location;lat;lon;timestamp;temperature;humidity
53274;DHT22;39163;52.696;6.758;2022-09-24T06:39:01;13.80;99.90
53274;DHT22;39163;52.696;6.758;2022-09-24T06:41:27;13.90;99.90
53274;DHT22;39163;52.696;6.758;2022-09-24T06:43:54;13.80;99.90
53274;DHT22;39163;52.696;6.758;2022-09-24T06:46:20;13.80;99.90
53274;DHT22;39163;52.696;6.758;2022-09-24T06:48:48;13.80;99.90
53274;DHT22;39163;52.696;6.758;2022-09-24T06:51:14;13.90;99.90
53274;DHT22;39163;52.696;6.758;2022-09-24T06:53:40;13.90;99.90
53274;DHT22;39163;52.696;6.758;2022-09-24T06:56:05;13.90;99.90
53274;DHT22;39163;52.696;6.758;2022-09-24T06:58:32;13.90;99.90
53274;DHT22;39163;52.696;6.758;2022-09-24T07:00:59;14.00;99.90
53274;DHT22;39163;52.696;6.758;2022-09-24T07:29:22;14.10;99.90
53274;DHT22;39163;52.696;6.758;2022-09-24T07:31:48;14.10;99.90
53274;DHT22;39163;52.696;6.758;2022-09-24T07:34:14;14.10;99.90
53274;DHT22;39163;52.696;6.758;2022-09-24T07:36:40;14.10;99.90
53274;DHT22;39163;52.696;6.758;2022-09-24T07:39:06;14.20;99.90
53274;DHT22;39163;52.696;6.758;2022-09-24T07:41:32;14.20;99.90
53274;DHT22;39163;52.696;6.758;2022-09-24T07:43:59;14.20;99.90
53274;DHT22;39163;52.696;6.758;2022-09-24T07:46:25;14.20;99.90
53274;DHT22;39163;52.696;6.758;2022-09-24T07:48:54;14.20;99.90
53274;DHT22;39163;52.696;6.758;2022-09-24T07:51:24;14.20;99.90
53274;DHT22;39163;52.696;6.758;2022-09-24T07:53:55;14.20;99.90
53274;DHT22;39163;52.696;6.758;2022-09-24T07:56:23;14.30;99.90
53274;DHT22;39163;52.696;6.758;2022-09-24T07:58:50;14.30;99.90
53274;DHT22;39163;52.696;6.758;2022-09-24T08:01:18;14.30;99.90
53274;DHT22;39163;52.696;6.758;2022-09-24T08:03:45;14.30;99.90
53274;DHT22;39163;52.696;6.758;2022-09-24T08:06:12;14.30;99.90
53274;DHT22;39163;52.696;6.758;2022-09-24T08:08:38;14.30;99.90
53274;DHT22;39163;52.696;6.758;2022-09-24T08:11:05;14.30;99.90
53274;DHT22;39163;52.696;6.758;2022-09-24T08:13:34;14.30;99.90
53274;DHT22;39163;52.696;6.758;2022-09-24T08:16:11;14.30;99.90
53274;DHT22;39163;52.696;6.758;2022-09-24T08:18:42;14.40;99.90
53274;DHT22;39163;52.696;6.758;2022-09-24T08:21:09;14.40;99.90
53274;DHT22;39163;52.696;6.758;2022-09-24T08:23:40;14.40;99.90
53274;DHT22;39163;52.696;6.758;2022-09-24T08:26:06;14.40;99.90
53274;DHT22;39163;52.696;6.758;2022-09-24T08:28:38;14.50;99.90
53274;DHT22;39163;52.696;6.758;2022-09-24T08:31:12;14.50;99.90
53274;DHT22;39163;52.696;6.758;2022-09-24T08:36:39;14.50;99.90
53274;DHT22;39163;52.696;6.758;2022-09-24T08:39:17;14.50;99.90
53274;DHT22;39163;52.696;6.758;2022-09-24T08:42:10;14.50;99.90
53274;DHT22;39163;52.696;6.758;2022-09-24T08:44:44;14.50;99.90
53274;DHT22;39163;52.696;6.758;2022-09-24T08:50:21;14.60;99.90
53274;DHT22;39163;52.696;6.758;2022-09-24T08:56:42;14.60;99.90
53274;DHT22;39163;52.696;6.758;2022-09-24T12:13:39;16.20;99.90
53274;DHT22;39163;52.696;6.758;2022-09-24T12:16:19;16.20;99.90
53274;DHT22;39163;52.696;6.758;2022-09-24T12:18:48;16.10;99.90
53274;DHT22;39163;52.696;6.758;2022-09-24T12:21:42;16.10;99.90
53274;DHT22;39163;52.696;6.758;2022-09-24T12:26:56;16.00;99.90
53274;DHT22;39163;52.696;6.758;2022-09-24T12:30:03;16.00;99.90
53274;DHT22;39163;52.696;6.758;2022-09-24T12:43:51;16.10;99.90
53274;DHT22;39163;52.696;6.758;2022-09-24T12:48:57;16.20;99.90
53274;DHT22;39163;52.696;6.758;2022-09-24T12:51:34;16.40;99.90
53274;DHT22;39163;52.696;6.758;2022-09-24T12:54:33;16.50;99.90
53274;DHT22;39163;52.696;6.758;2022-09-24T12:57:22;16.60;99.90
53274;DHT22;39163;52.696;6.758;2022-09-24T13:00:31;16.70;99.90
53274;DHT22;39163;52.696;6.758;2022-09-24T13:02:46;16.80;99.90
53274;DHT22;39163;52.696;6.758;2022-09-24T13:10:59;17.00;99.90
53274;DHT22;39163;52.696;6.758;2022-09-24T13:13:34;16.90;99.90
53274;DHT22;39163;52.696;6.758;2022-09-24T13:16:21;16.80;99.90
53274;DHT22;39163;52.696;6.758;2022-09-24T13:19:33;16.70;99.90
53274;DHT22;39163;52.696;6.758;2022-09-24T13:22:00;16.70;99.90
53274;DHT22;39163;52.696;6.758;2022-09-24T13:24:47;16.70;99.90
53274;DHT22;39163;52.696;6.758;2022-09-24T13:27:21;16.60;99.90
53274;DHT22;39163;52.696;6.758;2022-09-24T13:29:59;16.50;99.90
53274;DHT22;39163;52.696;6.758;2022-09-24T13:32:27;16.50;99.90
53274;DHT22;39163;52.696;6.758;2022-09-24T13:35:02;16.30;99.90
53274;DHT22;39163;52.696;6.758;2022-09-24T13:37:51;16.30;99.90
53274;DHT22;39163;52.696;6.758;2022-09-24T13:40:54;16.20;99.90
53274;DHT22;39163;52.696;6.758;2022-09-24T13:44:10;16.10;99.90
53274;DHT22;39163;52.696;6.758;2022-09-24T13:47:17;16.10;99.90
53274;DHT22;39163;52.696;6.758;2022-09-24T13:49:54;16.00;99.90
53274;DHT22;39163;52.696;6.758;2022-09-24T13:52:47;16.10;99.90
53274;DHT22;39163;52.696;6.758;2022-09-24T15:23:38;14.80;99.90
53274;DHT22;39163;52.696;6.758;2022-09-24T15:26:04;14.70;99.90
53274;DHT22;39163;52.696;6.758;2022-09-24T15:28:33;14.70;99.90
53274;DHT22;39163;52.696;6.758;2022-09-24T15:30:59;14.70;99.90
53274;DHT22;39163;52.696;6.758;2022-09-24T15:33:30;14.60;99.90
53274;DHT22;39163;52.696;6.758;2022-09-24T15:35:55;14.50;99.90
53274;DHT22;39163;52.696;6.758;2022-09-24T15:38:21;14.50;99.90
53274;DHT22;39163;52.696;6.758;2022-09-24T15:40:47;14.50;99.90
53274;DHT22;39163;52.696;6.758;2022-09-24T15:43:21;14.50;99.90
53274;DHT22;39163;52.696;6.758;2022-09-24T15:45:47;14.50;99.90
53274;DHT22;39163;52.696;6.758;2022-09-24T15:48:13;14.40;99.90
53274;DHT22;39163;52.696;6.758;2022-09-24T15:50:39;14.40;99.90
53274;DHT22;39163;52.696;6.758;2022-09-24T15:53:06;14.50;99.90
53274;DHT22;39163;52.696;6.758;2022-09-24T15:55:36;14.40;99.90
53274;DHT22;39163;52.696;6.758;2022-09-24T15:58:02;14.40;99.90
53274;DHT22;39163;52.696;6.758;2022-09-24T16:00:30;14.40;99.90
53274;DHT22;39163;52.696;6.758;2022-09-24T16:02:56;14.40;99.90
53274;DHT22;39163;52.696;6.758;2022-09-24T16:05:23;14.40;99.90
53274;DHT22;39163;52.696;6.758;2022-09-24T16:07:49;14.40;99.90
53274;DHT22;39163;52.696;6.758;2022-09-24T16:10:15;14.40;99.90
53274;DHT22;39163;52.696;6.758;2022-09-24T16:12:42;14.30;99.90
53274;DHT22;39163;52.696;6.758;2022-09-24T16:15:11;14.30;99.90
53274;DHT22;39163;52.696;6.758;2022-09-24T16:17:37;14.30;99.90
53274;DHT22;39163;52.696;6.758;2022-09-24T16:20:03;14.40;99.90
53274;DHT22;39163;52.696;6.758;2022-09-24T16:22:29;14.30;99.90
53274;DHT22;39163;52.696;6.758;2022-09-24T16:24:55;14.30;99.90
53274;DHT22;39163;52.696;6.758;2022-09-24T16:27:22;14.20;99.90
53274;DHT22;39163;52.696;6.758;2022-09-24T16:29:47;14.20;99.90
53274;DHT22;39163;52.696;6.758;2022-09-24T16:32:13;14.20;99.90
53274;DHT22;39163;52.696;6.758;2022-09-24T16:34:39;14.20;99.90
53274;DHT22;39163;52.696;6.758;2022-09-24T16:37:06;14.20;99.90
53274;DHT22;39163;52.696;6.758;2022-09-24T16:39:32;14.20;99.90
53274;DHT22;39163;52.696;6.758;2022-09-24T16:41:58;14.10;99.90
53274;DHT22;39163;52.696;6.758;2022-09-24T16:44:23;14.20;99.90
53274;DHT22;39163;52.696;6.758;2022-09-24T16:46:49;14.10;99.90
53274;DHT22;39163;52.696;6.758;2022-09-24T16:49:15;14.10;99.90
53274;DHT22;39163;52.696;6.758;2022-09-24T16:51:41;14.10;99.90
53274;DHT22;39163;52.696;6.758;2022-09-24T16:54:07;14.10;99.90
53274;DHT22;39163;52.696;6.758;2022-09-24T16:56:33;14.10;99.90
53274;DHT22;39163;52.696;6.758;2022-09-24T16:58:59;14.10;99.90
53274;DHT22;39163;52.696;6.758;2022-09-24T17:01:25;14.00;99.90
53274;DHT22;39163;52.696;6.758;2022-09-24T17:03:55;14.00;99.90
53274;DHT22;39163;52.696;6.758;2022-09-24T17:06:25;14.00;99.90
53274;DHT22;39163;52.696;6.758;2022-09-24T17:08:51;14.00;99.90
53274;DHT22;39163;52.696;6.758;2022-09-24T17:11:36;14.00;99.90
53274;DHT22;39163;52.696;6.758;2022-09-24T17:14:05;13.90;99.90
53274;DHT22;39163;52.696;6.758;2022-09-24T17:16:32;14.00;99.90
53274;DHT22;39163;52.696;6.758;2022-09-24T17:18:58;14.00;99.90
53274;DHT22;39163;52.696;6.758;2022-09-24T17:21:25;13.90;99.90
53274;DHT22;39163;52.696;6.758;2022-09-24T17:23:51;13.90;99.90
53274;DHT22;39163;52.696;6.758;2022-09-24T17:26:19;13.90;99.90
53274;DHT22;39163;52.696;6.758;2022-09-24T17:28:47;13.90;99.90
53274;DHT22;39163;52.696;6.758;2022-09-24T17:31:15;13.90;99.90
53274;DHT22;39163;52.696;6.758;2022-09-24T17:33:41;13.80;99.90
53274;DHT22;39163;52.696;6.758;2022-09-24T17:36:07;13.80;99.90
53274;DHT22;39163;52.696;6.758;2022-09-24T17:38:34;13.80;99.90
53274;DHT22;39163;52.696;6.758;2022-09-24T17:41:06;13.80;99.90
53274;DHT22;39163;52.696;6.758;2022-09-24T17:43:33;13.80;99.90
53274;DHT22;39163;52.696;6.758;2022-09-24T17:46:01;13.80;99.90
53274;DHT22;39163;52.696;6.758;2022-09-24T17:48:32;13.80;99.90
53274;DHT22;39163;52.696;6.758;2022-09-24T17:51:02;13.80;99.90
53274;DHT22;39163;52.696;6.758;2022-09-24T17:53:31;13.80;99.90
53274;DHT22;39163;52.696;6.758;2022-09-24T17:55:57;13.80;99.90
53274;DHT22;39163;52.696;6.758;2022-09-24T17:58:23;13.80;99.90
53274;DHT22;39163;52.696;6.758;2022-09-24T18:00:50;13.80;99.90
53274;DHT22;39163;52.696;6.758;2022-09-24T18:03:16;13.80;99.90
53274;DHT22;39163;52.696;6.758;2022-09-24T18:05:42;13.80;99.90
53274;DHT22;39163;52.696;6.758;2022-09-24T18:08:08;13.80;99.90
53274;DHT22;39163;52.696;6.758;2022-09-24T18:10:34;13.80;99.90
53274;DHT22;39163;52.696;6.758;2022-09-24T18:13:00;13.80;99.90
53274;DHT22;39163;52.696;6.758;2022-09-24T18:15:29;13.70;99.90
53274;DHT22;39163;52.696;6.758;2022-09-24T18:17:56;13.70;99.90
53274;DHT22;39163;52.696;6.758;2022-09-24T18:20:23;13.70;99.90
53274;DHT22;39163;52.696;6.758;2022-09-24T18:22:49;13.70;99.90
53274;DHT22;39163;52.696;6.758;2022-09-24T18:25:16;13.70;99.90
53274;DHT22;39163;52.696;6.758;2022-09-24T18:27:43;13.60;99.90
53274;DHT22;39163;52.696;6.758;2022-09-24T18:30:13;13.70;99.90
53274;DHT22;39163;52.696;6.758;2022-09-24T18:32:43;13.60;99.90
53274;DHT22;39163;52.696;6.758;2022-09-24T18:35:09;13.60;99.90
53274;DHT22;39163;52.696;6.758;2022-09-24T18:37:36;13.60;99.90
53274;DHT22;39163;52.696;6.758;2022-09-24T18:40:04;13.60;99.90
53274;DHT22;39163;52.696;6.758;2022-09-24T18:42:30;13.60;99.90
53274;DHT22;39163;52.696;6.758;2022-09-24T18:44:59;13.60;99.90
53274;DHT22;39163;52.696;6.758;2022-09-24T18:47:25;13.60;99.90
53274;DHT22;39163;52.696;6.758;2022-09-24T18:49:51;13.60;99.90
53274;DHT22;39163;52.696;6.758;2022-09-24T18:52:16;13.60;99.90
53274;DHT22;39163;52.696;6.758;2022-09-24T18:54:42;13.60;99.90
53274;DHT22;39163;52.696;6.758;2022-09-24T18:57:08;13.60;99.90
53274;DHT22;39163;52.696;6.758;2022-09-24T18:59:33;13.60;99.90
53274;DHT22;39163;52.696;6.758;2022-09-24T19:02:09;13.50;99.90
53274;DHT22;39163;52.696;6.758;2022-09-24T19:04:35;13.50;99.90
53274;DHT22;39163;52.696;6.758;2022-09-24T19:07:00;13.50;99.90
53274;DHT22;39163;52.696;6.758;2022-09-24T19:09:26;13.50;99.90
53274;DHT22;39163;52.696;6.758;2022-09-24T19:11:52;13.50;99.90
53274;DHT22;39163;52.696;6.758;2022-09-24T19:14:18;13.50;99.90
53274;DHT22;39163;52.696;6.758;2022-09-24T19:16:47;13.40;99.90
53274;DHT22;39163;52.696;6.758;2022-09-24T19:19:13;13.50;99.90
53274;DHT22;39163;52.696;6.758;2022-09-24T19:21:39;13.40;99.90
53274;DHT22;39163;52.696;6.758;2022-09-24T19:24:06;13.40;99.90
53274;DHT22;39163;52.696;6.758;2022-09-24T19:26:34;13.40;99.90
53274;DHT22;39163;52.696;6.758;2022-09-24T19:29:01;13.40;99.90
53274;DHT22;39163;52.696;6.758;2022-09-24T19:31:30;13.40;99.90
53274;DHT22;39163;52.696;6.758;2022-09-24T19:33:57;13.40;99.90
53274;DHT22;39163;52.696;6.758;2022-09-24T19:36:23;13.30;99.90
53274;DHT22;39163;52.696;6.758;2022-09-24T19:38:49;13.30;99.90
53274;DHT22;39163;52.696;6.758;2022-09-24T19:41:16;13.30;99.90
53274;DHT22;39163;52.696;6.758;2022-09-24T19:43:43;13.30;99.90
53274;DHT22;39163;52.696;6.758;2022-09-24T19:46:11;13.30;99.90
53274;DHT22;39163;52.696;6.758;2022-09-24T19:48:41;13.20;99.90
53274;DHT22;39163;52.696;6.758;2022-09-24T19:51:12;13.20;99.90
53274;DHT22;39163;52.696;6.758;2022-09-24T19:53:38;13.20;99.90
53274;DHT22;39163;52.696;6.758;2022-09-24T19:56:08;13.20;99.90
53274;DHT22;39163;52.696;6.758;2022-09-24T19:58:35;13.20;99.90
53274;DHT22;39163;52.696;6.758;2022-09-24T20:01:03;13.20;99.90
53274;DHT22;39163;52.696;6.758;2022-09-24T20:03:33;13.20;99.90
53274;DHT22;39163;52.696;6.758;2022-09-24T20:06:05;13.10;99.90
53274;DHT22;39163;52.696;6.758;2022-09-24T20:08:31;13.10;99.90
53274;DHT22;39163;52.696;6.758;2022-09-24T20:11:04;13.20;99.90
53274;DHT22;39163;52.696;6.758;2022-09-24T20:13:31;13.10;99.90
53274;DHT22;39163;52.696;6.758;2022-09-24T20:16:01;13.10;99.90
53274;DHT22;39163;52.696;6.758;2022-09-24T20:18:28;13.10;99.90
53274;DHT22;39163;52.696;6.758;2022-09-24T20:20:54;13.10;99.90
53274;DHT22;39163;52.696;6.758;2022-09-24T20:23:23;13.20;99.90
53274;DHT22;39163;52.696;6.758;2022-09-24T20:25:53;13.20;99.90
53274;DHT22;39163;52.696;6.758;2022-09-24T20:28:38;13.10;99.90
53274;DHT22;39163;52.696;6.758;2022-09-24T20:31:08;13.10;99.90
53274;DHT22;39163;52.696;6.758;2022-09-24T20:33:34;13.10;99.90
53274;DHT22;39163;52.696;6.758;2022-09-24T20:36:01;13.10;99.90
53274;DHT22;39163;52.696;6.758;2022-09-24T20:38:28;13.10;99.90
53274;DHT22;39163;52.696;6.758;2022-09-24T20:40:54;13.10;99.90
53274;DHT22;39163;52.696;6.758;2022-09-24T20:43:22;13.10;99.90
53274;DHT22;39163;52.696;6.758;2022-09-24T20:45:48;13.10;99.90
53274;DHT22;39163;52.696;6.758;2022-09-24T20:48:14;13.10;99.90
53274;DHT22;39163;52.696;6.758;2022-09-24T20:50:41;13.10;99.90
53274;DHT22;39163;52.696;6.758;2022-09-24T20:53:07;13.10;99.90
53274;DHT22;39163;52.696;6.758;2022-09-24T20:55:33;13.10;99.90
53274;DHT22;39163;52.696;6.758;2022-09-24T20:57:59;13.10;99.90
53274;DHT22;39163;52.696;6.758;2022-09-24T21:00:25;13.10;99.90
53274;DHT22;39163;52.696;6.758;2022-09-24T21:02:57;13.00;99.90
53274;DHT22;39163;52.696;6.758;2022-09-24T21:05:28;13.00;99.90
53274;DHT22;39163;52.696;6.758;2022-09-24T21:07:54;13.00;99.90
53274;DHT22;39163;52.696;6.758;2022-09-24T21:10:20;13.00;99.90
53274;DHT22;39163;52.696;6.758;2022-09-24T21:12:48;12.90;99.90
53274;DHT22;39163;52.696;6.758;2022-09-24T21:15:21;12.90;99.90
53274;DHT22;39163;52.696;6.758;2022-09-24T21:17:53;12.90;99.90
53274;DHT22;39163;52.696;6.758;2022-09-24T21:20:19;12.80;99.90
53274;DHT22;39163;52.696;6.758;2022-09-24T22:31:09;11.00;99.90
53274;DHT22;39163;52.696;6.758;2022-09-24T22:33:36;11.00;99.90
53274;DHT22;39163;52.696;6.758;2022-09-24T22:36:21;10.90;99.90
53274;DHT22;39163;52.696;6.758;2022-09-24T22:38:50;10.80;99.90
53274;DHT22;39163;52.696;6.758;2022-09-24T22:41:16;10.80;99.90
53274;DHT22;39163;52.696;6.758;2022-09-24T22:43:42;10.80;99.90
53274;DHT22;39163;52.696;6.758;2022-09-24T22:46:11;10.70;99.90
53274;DHT22;39163;52.696;6.758;2022-09-24T22:48:38;10.70;99.90
53274;DHT22;39163;52.696;6.758;2022-09-24T22:51:05;10.60;99.90
53274;DHT22;39163;52.696;6.758;2022-09-24T22:53:40;10.60;99.90
53274;DHT22;39163;52.696;6.758;2022-09-24T22:56:21;10.50;99.90
53274;DHT22;39163;52.696;6.758;2022-09-24T22:58:58;10.50;99.90
53274;DHT22;39163;52.696;6.758;2022-09-24T23:01:33;10.50;99.90
53274;DHT22;39163;52.696;6.758;2022-09-24T23:04:00;10.40;99.90
53274;DHT22;39163;52.696;6.758;2022-09-24T23:06:26;10.40;99.90
53274;DHT22;39163;52.696;6.758;2022-09-24T23:08:54;10.30;99.90
53274;DHT22;39163;52.696;6.758;2022-09-24T23:11:23;10.30;99.90
53274;DHT22;39163;52.696;6.758;2022-09-24T23:13:53;10.20;99.90
53274;DHT22;39163;52.696;6.758;2022-09-24T23:16:25;10.20;99.90
53274;DHT22;39163;52.696;6.758;2022-09-24T23:18:54;10.10;99.90
53274;DHT22;39163;52.696;6.758;2022-09-24T23:21:22;10.10;99.90
53274;DHT22;39163;52.696;6.758;2022-09-24T23:23:55;10.00;99.90
53274;DHT22;39163;52.696;6.758;2022-09-24T23:26:22;10.00;99.90
53274;DHT22;39163;52.696;6.758;2022-09-24T23:28:49;9.90;99.90
53274;DHT22;39163;52.696;6.758;2022-09-24T23:31:15;9.90;99.90
53274;DHT22;39163;52.696;6.758;2022-09-24T23:33:42;9.80;99.90
53274;DHT22;39163;52.696;6.758;2022-09-24T23:36:10;9.80;99.90
53274;DHT22;39163;52.696;6.758;2022-09-24T23:38:36;9.70;99.90
53274;DHT22;39163;52.696;6.758;2022-09-24T23:41:03;9.70;99.90
53274;DHT22;39163;52.696;6.758;2022-09-24T23:43:30;9.60;99.90
53274;DHT22;39163;52.696;6.758;2022-09-24T23:45:56;9.60;99.90
53274;DHT22;39163;52.696;6.758;2022-09-24T23:48:22;9.60;99.90
53274;DHT22;39163;52.696;6.758;2022-09-24T23:50:48;9.50;99.90
53274;DHT22;39163;52.696;6.758;2022-09-24T23:53:15;9.40;99.90
53274;DHT22;39163;52.696;6.758;2022-09-24T23:55:46;9.40;99.90
53274;DHT22;39163;52.696;6.758;2022-09-24T23:58:33;9.40;99.90
